Time;durP1;ratioP1;P1;durP2;ratioP2;P2;SDS_P1;SDS_P2;PMS_P1;PMS_P2;Temp;Humidity;BMP_temperature;BMP_pressure;BME280_temperature;BME280_humidity;BME280_pressure;Samples;Min_cycle;Max_cycle;Signal;HPM_P1;HPM_P2
2023/08/04 00:00:20;;;;;;;13.20;2.30;;;;;;;;;;5007276;28;20358;-71
2023/08/04 00:02:46;;;;;;;9.90;2.20;;;;;;;;;;5006668;28;20068;-70
2023/08/04 00:05:12;;;;;;;8.02;2.03;;;;;;;;;;5005253;28;20061;-71
2023/08/04 00:07:38;;;;;;;11.10;2.17;;;;;;;;;;5006941;28;20065;-71
2023/08/04 00:10:05;;;;;;;9.88;2.25;;;;;;;;;;5000183;28;20373;-71
2023/08/04 00:12:31;;;;;;;9.48;2.17;;;;;;;;;;5006820;28;20972;-71
2023/08/04 00:14:57;;;;;;;10.18;2.35;;;;;;;;;;5008426;28;20041;-71
2023/08/04 00:17:23;;;;;;;12.50;2.58;;;;;;;;;;5020468;28;20033;-71
2023/08/04 00:19:49;;;;;;;12.95;2.90;;;;;;;;;;5019396;28;20475;-71
2023/08/04 00:22:16;;;;;;;10.32;2.25;;;;;;;;;;5019464;28;20032;-71
2023/08/04 00:24:42;;;;;;;8.63;1.98;;;;;;;;;;5004700;28;20051;-71
2023/08/04 00:27:08;;;;;;;11.80;2.42;;;;;;;;;;5019251;28;20017;-71
2023/08/04 00:29:36;;;;;;;11.85;2.40;;;;;;;;;;5019610;28;20483;-71
2023/08/04 00:32:02;;;;;;;9.82;2.10;;;;;;;;;;5005197;28;20145;-71
2023/08/04 00:34:28;;;;;;;11.20;2.10;;;;;;;;;;5000432;28;20107;-71
2023/08/04 00:36:54;;;;;;;9.98;2.08;;;;;;;;;;5003055;28;20029;-71
2023/08/04 00:39:21;;;;;;;9.88;2.10;;;;;;;;;;5019612;28;20330;-71
2023/08/04 00:41:47;;;;;;;10.20;2.15;;;;;;;;;;5016753;28;20447;-70
2023/08/04 00:44:14;;;;;;;10.55;2.35;;;;;;;;;;5022111;28;20477;-71
2023/08/04 00:46:40;;;;;;;11.15;2.20;;;;;;;;;;5018849;28;20601;-70
2023/08/04 00:49:07;;;;;;;8.55;2.00;;;;;;;;;;5020639;28;20035;-70
2023/08/04 00:51:34;;;;;;;11.63;2.40;;;;;;;;;;5018185;28;20048;-69
2023/08/04 00:54:00;;;;;;;10.57;2.33;;;;;;;;;;5018664;28;20037;-70
2023/08/04 00:56:30;;;;;;;9.20;2.00;;;;;;;;;;5022419;28;20021;-69
2023/08/04 00:58:56;;;;;;;10.57;2.30;;;;;;;;;;4996868;28;20041;-72
2023/08/04 01:01:22;;;;;;;11.05;2.10;;;;;;;;;;5023186;28;20029;-70
2023/08/04 01:03:48;;;;;;;10.40;2.15;;;;;;;;;;5016080;28;20037;-70
2023/08/04 01:06:17;;;;;;;9.52;2.00;;;;;;;;;;5020168;28;20225;-70
2023/08/04 01:08:50;;;;;;;9.02;2.15;;;;;;;;;;5022031;28;20072;-70
2023/08/04 01:11:19;;;;;;;9.98;1.95;;;;;;;;;;5019448;28;20765;-70
2023/08/04 01:13:45;;;;;;;8.27;1.60;;;;;;;;;;4997414;28;20037;-69
2023/08/04 01:16:11;;;;;;;9.20;1.85;;;;;;;;;;5001637;28;20494;-71
2023/08/04 01:18:37;;;;;;;9.35;1.63;;;;;;;;;;5020450;28;20042;-71
2023/08/04 01:21:04;;;;;;;9.88;2.10;;;;;;;;;;5017199;28;20146;-71
2023/08/04 01:23:30;;;;;;;11.32;2.38;;;;;;;;;;5016953;28;20040;-71
2023/08/04 01:25:57;;;;;;;9.68;1.77;;;;;;;;;;5019379;28;20033;-71
2023/08/04 01:28:23;;;;;;;10.35;2.15;;;;;;;;;;5016029;28;20288;-70
2023/08/04 01:30:51;;;;;;;11.75;2.08;;;;;;;;;;5018511;28;20109;-71
2023/08/04 01:33:17;;;;;;;8.30;1.92;;;;;;;;;;5018356;28;20569;-70
2023/08/04 01:35:44;;;;;;;10.70;2.20;;;;;;;;;;5019357;28;20077;-71
2023/08/04 01:38:10;;;;;;;10.02;2.10;;;;;;;;;;5019058;28;20095;-71
2023/08/04 01:40:37;;;;;;;8.77;1.88;;;;;;;;;;5003385;28;20463;-71
2023/08/04 01:43:04;;;;;;;9.13;2.20;;;;;;;;;;4999341;28;20031;-71
2023/08/04 01:45:30;;;;;;;11.02;2.30;;;;;;;;;;5021660;28;20142;-71
2023/08/04 01:47:56;;;;;;;9.18;2.00;;;;;;;;;;5017266;28;20130;-71
2023/08/04 01:50:22;;;;;;;8.98;1.83;;;;;;;;;;5019133;28;20025;-71
2023/08/04 01:52:49;;;;;;;9.27;1.90;;;;;;;;;;5018036;28;20025;-71
2023/08/04 01:55:15;;;;;;;9.30;1.90;;;;;;;;;;5020595;28;20158;-70
2023/08/04 01:57:41;;;;;;;11.25;2.03;;;;;;;;;;5018557;28;20025;-71
2023/08/04 02:00:08;;;;;;;9.18;2.13;;;;;;;;;;5017536;28;20543;-71
2023/08/04 02:02:34;;;;;;;9.98;2.30;;;;;;;;;;5018619;28;20112;-71
2023/08/04 02:05:01;;;;;;;10.93;2.38;;;;;;;;;;5000309;28;20041;-71
2023/08/04 02:07:27;;;;;;;9.95;2.17;;;;;;;;;;5000471;28;20049;-71
2023/08/04 02:09:53;;;;;;;10.35;2.20;;;;;;;;;;5013838;28;20136;-70
2023/08/04 02:12:19;;;;;;;10.93;2.45;;;;;;;;;;5019800;28;20467;-71
2023/08/04 02:14:45;;;;;;;12.82;2.63;;;;;;;;;;4996195;28;20051;-71
2023/08/04 02:17:12;;;;;;;11.70;2.60;;;;;;;;;;5017779;28;20345;-70
2023/08/04 02:19:38;;;;;;;11.82;2.50;;;;;;;;;;5017412;28;20036;-70
2023/08/04 02:22:05;;;;;;;12.02;2.70;;;;;;;;;;5015851;28;20033;-72
2023/08/04 02:24:31;;;;;;;12.77;2.42;;;;;;;;;;5019360;28;20029;-71
2023/08/04 02:26:57;;;;;;;12.30;2.67;;;;;;;;;;5015398;28;20503;-70
2023/08/04 02:29:23;;;;;;;16.83;2.78;;;;;;;;;;5018290;28;20534;-71
2023/08/04 02:31:50;;;;;;;10.73;2.50;;;;;;;;;;5014457;28;20036;-71
2023/08/04 02:34:17;;;;;;;13.00;2.75;;;;;;;;;;5021471;28;20537;-71
2023/08/04 02:36:43;;;;;;;10.18;2.00;;;;;;;;;;4998396;28;20058;-71
2023/08/04 02:39:09;;;;;;;10.07;2.40;;;;;;;;;;4997747;28;20083;-71
2023/08/04 02:41:35;;;;;;;11.20;2.42;;;;;;;;;;5017766;28;20040;-71
2023/08/04 02:44:03;;;;;;;10.20;2.00;;;;;;;;;;4999547;28;20059;-69
2023/08/04 02:46:30;;;;;;;9.90;2.00;;;;;;;;;;5020600;28;20025;-72
2023/08/04 02:48:56;;;;;;;10.70;2.47;;;;;;;;;;5019392;28;20033;-70
2023/08/04 02:51:22;;;;;;;11.93;2.50;;;;;;;;;;5021213;28;20029;-72
2023/08/04 02:53:49;;;;;;;14.82;3.05;;;;;;;;;;5016670;28;20140;-70
2023/08/04 02:56:16;;;;;;;12.07;2.50;;;;;;;;;;5019367;28;20898;-70
2023/08/04 02:58:43;;;;;;;11.48;2.70;;;;;;;;;;5021970;28;20389;-70
2023/08/04 03:01:09;;;;;;;13.73;3.10;;;;;;;;;;5018190;28;20248;-70
2023/08/04 03:03:36;;;;;;;11.50;2.60;;;;;;;;;;5020143;28;20049;-69
2023/08/04 03:06:02;;;;;;;11.57;2.67;;;;;;;;;;4999458;28;20360;-70
2023/08/04 03:08:29;;;;;;;16.67;2.92;;;;;;;;;;5018588;28;20025;-70
2023/08/04 03:10:56;;;;;;;13.90;3.20;;;;;;;;;;5021054;28;20067;-70
2023/08/04 03:13:22;;;;;;;11.70;2.70;;;;;;;;;;5026073;28;20116;-70
2023/08/04 03:15:54;;;;;;;11.13;2.65;;;;;;;;;;5016705;28;20032;-70
2023/08/04 03:18:20;;;;;;;11.25;2.70;;;;;;;;;;5022556;28;20021;-70
2023/08/04 03:20:46;;;;;;;11.45;2.70;;;;;;;;;;5001996;28;20037;-70
2023/08/04 03:23:12;;;;;;;13.95;3.00;;;;;;;;;;5005276;28;20384;-70
2023/08/04 03:25:38;;;;;;;12.45;3.05;;;;;;;;;;5022902;28;20044;-70
2023/08/04 03:28:05;;;;;;;10.95;2.97;;;;;;;;;;5006824;28;20025;-70
2023/08/04 03:30:32;;;;;;;12.75;2.83;;;;;;;;;;5017102;28;20029;-70
2023/08/04 03:32:58;;;;;;;10.57;2.47;;;;;;;;;;5019368;28;20585;-70
2023/08/04 03:35:24;;;;;;;13.40;3.17;;;;;;;;;;5018891;28;20530;-70
2023/08/04 03:37:50;;;;;;;11.18;2.90;;;;;;;;;;5020258;28;20380;-70
2023/08/04 03:40:16;;;;;;;12.98;2.53;;;;;;;;;;5014529;28;20668;-70
2023/08/04 03:42:43;;;;;;;12.13;2.55;;;;;;;;;;5019025;28;20073;-70
2023/08/04 03:45:09;;;;;;;13.15;3.00;;;;;;;;;;5021191;28;20522;-70
2023/08/04 03:47:35;;;;;;;10.68;2.42;;;;;;;;;;5019837;28;20100;-70
2023/08/04 03:50:02;;;;;;;11.50;2.47;;;;;;;;;;5001543;28;20261;-70
2023/08/04 03:52:28;;;;;;;10.38;2.58;;;;;;;;;;5022430;28;20065;-70
2023/08/04 03:54:55;;;;;;;13.45;2.72;;;;;;;;;;5019582;28;20029;-70
2023/08/04 03:57:21;;;;;;;12.88;2.65;;;;;;;;;;5022779;28;20077;-70
2023/08/04 03:59:48;;;;;;;11.55;2.88;;;;;;;;;;4997662;28;20033;-70
2023/08/04 04:02:14;;;;;;;13.20;2.70;;;;;;;;;;5022471;28;20021;-70
2023/08/04 04:04:40;;;;;;;13.27;2.78;;;;;;;;;;5017373;28;20135;-70
2023/08/04 04:07:06;;;;;;;12.50;2.70;;;;;;;;;;5014853;28;20143;-69
2023/08/04 04:09:33;;;;;;;13.07;3.00;;;;;;;;;;5024408;28;20052;-69
2023/08/04 04:11:59;;;;;;;9.60;2.50;;;;;;;;;;4998483;28;20106;-69
2023/08/04 04:14:25;;;;;;;13.18;2.90;;;;;;;;;;5020653;28;20568;-69
2023/08/04 04:16:51;;;;;;;13.07;2.95;;;;;;;;;;5018045;28;20037;-70
2023/08/04 04:19:17;;;;;;;13.93;2.78;;;;;;;;;;5001757;28;20497;-72
2023/08/04 04:21:43;;;;;;;15.18;2.80;;;;;;;;;;5020672;28;20588;-70
2023/08/04 04:24:09;;;;;;;10.05;2.50;;;;;;;;;;5020747;28;20041;-70
2023/08/04 04:26:36;;;;;;;13.85;2.95;;;;;;;;;;5020631;28;20025;-70
2023/08/04 04:29:02;;;;;;;10.60;2.65;;;;;;;;;;5016017;28;20021;-70
2023/08/04 04:31:28;;;;;;;12.48;2.65;;;;;;;;;;5023543;28;20067;-70
2023/08/04 04:33:54;;;;;;;11.65;2.85;;;;;;;;;;4984843;28;20351;-70
2023/08/04 04:36:20;;;;;;;11.70;2.60;;;;;;;;;;4976777;28;20045;-69
2023/08/04 04:38:47;;;;;;;12.80;3.13;;;;;;;;;;4973522;28;20034;-70
2023/08/04 04:41:13;;;;;;;14.48;2.95;;;;;;;;;;4980545;28;20391;-70
2023/08/04 04:43:39;;;;;;;13.50;3.03;;;;;;;;;;4981895;28;20041;-71
2023/08/04 04:46:05;;;;;;;11.23;2.63;;;;;;;;;;4977655;28;20075;-70
2023/08/04 04:48:31;;;;;;;15.02;3.33;;;;;;;;;;4976131;28;20069;-70
2023/08/04 04:50:57;;;;;;;13.73;2.88;;;;;;;;;;4972252;28;20030;-70
2023/08/04 04:53:24;;;;;;;15.70;3.42;;;;;;;;;;4980099;28;20033;-71
2023/08/04 04:55:50;;;;;;;15.73;3.80;;;;;;;;;;4979403;28;20526;-71
2023/08/04 04:58:16;;;;;;;20.55;4.25;;;;;;;;;;4982171;28;20926;-71
2023/08/04 05:00:42;;;;;;;19.75;3.47;;;;;;;;;;4973361;28;20513;-71
2023/08/04 05:03:10;;;;;;;13.80;3.13;;;;;;;;;;4973287;28;20042;-70
2023/08/04 05:05:37;;;;;;;18.25;3.92;;;;;;;;;;4978598;28;20030;-70
2023/08/04 05:08:04;;;;;;;16.63;3.88;;;;;;;;;;4979481;28;20598;-70
2023/08/04 05:10:30;;;;;;;17.27;3.42;;;;;;;;;;4978507;28;20025;-70
2023/08/04 05:12:56;;;;;;;16.40;3.45;;;;;;;;;;4975852;28;20428;-70
2023/08/04 05:15:22;;;;;;;13.07;3.15;;;;;;;;;;4981660;28;20030;-70
2023/08/04 05:17:48;;;;;;;15.43;3.20;;;;;;;;;;4977103;28;20411;-70
2023/08/04 05:20:14;;;;;;;14.10;3.45;;;;;;;;;;4979344;28;20219;-70
2023/08/04 05:22:41;;;;;;;17.60;4.43;;;;;;;;;;4975179;28;20037;-70
2023/08/04 05:25:08;;;;;;;14.60;3.50;;;;;;;;;;4978035;28;20484;-70
2023/08/04 05:27:34;;;;;;;17.35;3.85;;;;;;;;;;4982272;28;20022;-70
2023/08/04 05:30:01;;;;;;;14.63;3.25;;;;;;;;;;4976200;28;20022;-69
2023/08/04 05:32:27;;;;;;;16.95;3.60;;;;;;;;;;4983125;28;20035;-70
2023/08/04 05:34:53;;;;;;;15.68;3.53;;;;;;;;;;5016494;28;20068;-70
2023/08/04 05:37:19;;;;;;;14.75;3.50;;;;;;;;;;5019267;28;20352;-70
2023/08/04 05:39:45;;;;;;;18.30;4.05;;;;;;;;;;5017130;28;20044;-70
2023/08/04 05:42:11;;;;;;;13.07;3.30;;;;;;;;;;5016998;28;20043;-70
2023/08/04 05:44:38;;;;;;;18.83;4.50;;;;;;;;;;5017989;28;20566;-70
2023/08/04 05:47:04;;;;;;;14.63;4.85;;;;;;;;;;5018817;28;20849;-70
2023/08/04 05:49:32;;;;;;;16.20;4.53;;;;;;;;;;5021208;28;20017;-70
2023/08/04 05:51:59;;;;;;;14.57;3.47;;;;;;;;;;5015286;28;20540;-70
2023/08/04 05:54:25;;;;;;;13.95;3.60;;;;;;;;;;5016092;28;20998;-70
2023/08/04 05:56:51;;;;;;;14.40;3.85;;;;;;;;;;5014457;28;20052;-70
2023/08/04 05:59:18;;;;;;;15.80;4.22;;;;;;;;;;5015274;28;20105;-72
2023/08/04 06:01:44;;;;;;;16.15;4.60;;;;;;;;;;5016310;28;20366;-70
2023/08/04 06:04:11;;;;;;;15.65;4.32;;;;;;;;;;5019995;28;20029;-70
2023/08/04 06:06:37;;;;;;;14.75;3.97;;;;;;;;;;5021667;28;20500;-70
2023/08/04 06:09:03;;;;;;;17.70;3.92;;;;;;;;;;4997234;28;20116;-70
2023/08/04 06:11:29;;;;;;;16.00;3.63;;;;;;;;;;5017284;28;20049;-70
2023/08/04 06:13:55;;;;;;;18.15;4.22;;;;;;;;;;5020156;28;20033;-70
2023/08/04 06:16:21;;;;;;;18.17;4.35;;;;;;;;;;5020293;28;20029;-70
2023/08/04 06:18:48;;;;;;;14.57;3.83;;;;;;;;;;4995281;28;20048;-70
2023/08/04 06:21:14;;;;;;;16.25;3.53;;;;;;;;;;5022271;28;20198;-70
2023/08/04 06:23:45;;;;;;;15.80;4.03;;;;;;;;;;5017552;28;20024;-70
2023/08/04 06:26:12;;;;;;;15.77;3.65;;;;;;;;;;5009078;28;20027;-70
2023/08/04 06:28:38;;;;;;;16.75;3.80;;;;;;;;;;5018497;28;20045;-70
2023/08/04 06:31:05;;;;;;;14.57;3.60;;;;;;;;;;5022035;28;20152;-70
2023/08/04 06:33:31;;;;;;;18.98;4.15;;;;;;;;;;5005168;28;20510;-70
2023/08/04 06:35:57;;;;;;;15.50;4.13;;;;;;;;;;4975385;28;20042;-70
2023/08/04 06:38:23;;;;;;;15.05;3.80;;;;;;;;;;4973918;28;20209;-70
2023/08/04 06:40:49;;;;;;;18.90;4.28;;;;;;;;;;4977951;28;20089;-70
2023/08/04 06:43:16;;;;;;;15.98;3.80;;;;;;;;;;4976612;28;20026;-70
2023/08/04 06:45:42;;;;;;;16.27;4.00;;;;;;;;;;4983059;28;20046;-70
2023/08/04 06:48:08;;;;;;;17.58;3.67;;;;;;;;;;4978966;28;20531;-70
2023/08/04 06:50:34;;;;;;;14.88;3.35;;;;;;;;;;4980572;28;20290;-70
2023/08/04 06:53:00;;;;;;;15.85;3.40;;;;;;;;;;4980393;28;20030;-70
2023/08/04 06:55:26;;;;;;;17.42;4.07;;;;;;;;;;4982811;28;20042;-70
2023/08/04 06:57:53;;;;;;;16.30;3.85;;;;;;;;;;4979715;28;20068;-71
2023/08/04 07:00:19;;;;;;;14.88;3.60;;;;;;;;;;4980662;28;20034;-70
2023/08/04 07:02:49;;;;;;;15.75;3.65;;;;;;;;;;4980514;28;20156;-70
2023/08/04 07:05:16;;;;;;;14.55;3.67;;;;;;;;;;4983652;28;20593;-70
2023/08/04 07:07:42;;;;;;;15.40;3.15;;;;;;;;;;4983094;28;20135;-70
2023/08/04 07:10:10;;;;;;;14.88;3.78;;;;;;;;;;4981621;28;20032;-70
2023/08/04 07:12:37;;;;;;;15.52;3.67;;;;;;;;;;4984689;28;20018;-70
2023/08/04 07:15:03;;;;;;;16.13;4.40;;;;;;;;;;4979356;28;20030;-70
2023/08/04 07:17:29;;;;;;;12.68;3.20;;;;;;;;;;4981860;28;20627;-70
2023/08/04 07:19:55;;;;;;;16.48;3.30;;;;;;;;;;4981002;28;20109;-70
2023/08/04 07:22:21;;;;;;;13.15;3.22;;;;;;;;;;4977737;28;20030;-71
2023/08/04 07:24:53;;;;;;;14.93;3.50;;;;;;;;;;4983907;28;20100;-70
2023/08/04 07:27:19;;;;;;;15.32;3.55;;;;;;;;;;4983577;28;21184;-71
2023/08/04 07:29:45;;;;;;;15.38;3.70;;;;;;;;;;4977476;28;20038;-71
2023/08/04 07:32:11;;;;;;;15.45;3.75;;;;;;;;;;4983879;28;20109;-71
2023/08/04 07:34:37;;;;;;;13.70;3.42;;;;;;;;;;4984715;28;20417;-71
2023/08/04 07:37:03;;;;;;;15.60;3.53;;;;;;;;;;4978421;28;20025;-71
2023/08/04 07:39:30;;;;;;;14.68;3.20;;;;;;;;;;4986778;28;20132;-71
2023/08/04 07:41:56;;;;;;;17.65;3.85;;;;;;;;;;4982389;28;20084;-70
2023/08/04 07:44:22;;;;;;;13.95;2.90;;;;;;;;;;4988710;28;20057;-70
2023/08/04 07:46:48;;;;;;;15.52;3.40;;;;;;;;;;4982646;28;20440;-70
2023/08/04 07:49:14;;;;;;;15.00;3.28;;;;;;;;;;4981685;28;20033;-71
2023/08/04 07:51:40;;;;;;;12.82;3.00;;;;;;;;;;4983676;28;20026;-69
2023/08/04 07:54:07;;;;;;;13.27;3.42;;;;;;;;;;4980521;28;20045;-72
2023/08/04 07:56:33;;;;;;;13.18;3.10;;;;;;;;;;4986267;28;20367;-70
2023/08/04 07:58:59;;;;;;;15.05;3.13;;;;;;;;;;4979338;28;20141;-70
2023/08/04 08:01:25;;;;;;;13.13;3.00;;;;;;;;;;4980652;28;20065;-69
2023/08/04 08:03:52;;;;;;;15.13;3.10;;;;;;;;;;4980985;28;20128;-70
2023/08/04 08:06:18;;;;;;;13.45;2.92;;;;;;;;;;4983856;28;20034;-70
2023/08/04 08:08:47;;;;;;;14.82;3.35;;;;;;;;;;4984091;28;20038;-70
2023/08/04 08:11:13;;;;;;;12.13;3.03;;;;;;;;;;4988308;28;20030;-70
2023/08/04 08:13:39;;;;;;;12.60;2.70;;;;;;;;;;4982100;28;20026;-70
2023/08/04 08:16:10;;;;;;;12.02;3.08;;;;;;;;;;4981000;28;20069;-70
2023/08/04 08:18:36;;;;;;;11.75;3.10;;;;;;;;;;4980153;28;20042;-71
2023/08/04 08:21:07;;;;;;;12.88;3.28;;;;;;;;;;4994581;28;20038;-71
2023/08/04 08:23:33;;;;;;;13.48;2.95;;;;;;;;;;4986496;28;20111;-71
2023/08/04 08:25:59;;;;;;;16.52;3.17;;;;;;;;;;5000174;28;20033;-71
2023/08/04 08:28:25;;;;;;;13.20;3.28;;;;;;;;;;4980717;28;20036;-71
2023/08/04 08:30:51;;;;;;;13.77;3.40;;;;;;;;;;4981030;28;20510;-71
2023/08/04 08:33:18;;;;;;;24.92;4.60;;;;;;;;;;5004059;28;20045;-71
2023/08/04 08:35:44;;;;;;;17.58;3.38;;;;;;;;;;5018679;28;20048;-71
2023/08/04 08:38:11;;;;;;;13.27;3.65;;;;;;;;;;5023727;28;20037;-71
2023/08/04 08:40:37;;;;;;;15.32;3.50;;;;;;;;;;5023366;28;20030;-71
2023/08/04 08:43:03;;;;;;;13.77;3.25;;;;;;;;;;5018472;28;20159;-71
2023/08/04 08:45:29;;;;;;;13.90;3.33;;;;;;;;;;5025814;28;20061;-71
2023/08/04 08:47:56;;;;;;;14.18;3.97;;;;;;;;;;5020244;28;20232;-71
2023/08/04 08:50:26;;;;;;;14.85;3.67;;;;;;;;;;5020348;28;20368;-71
2023/08/04 08:53:03;;;;;;;12.65;3.25;;;;;;;;;;5005755;28;20044;-71
2023/08/04 08:55:29;;;;;;;12.52;3.03;;;;;;;;;;5024091;28;20040;-71
2023/08/04 08:57:56;;;;;;;11.52;2.95;;;;;;;;;;5014217;28;20076;-71
2023/08/04 09:00:23;;;;;;;11.20;3.00;;;;;;;;;;5024531;28;20029;-71
2023/08/04 09:02:49;;;;;;;10.55;2.80;;;;;;;;;;5000333;28;20094;-71
2023/08/04 09:05:16;;;;;;;12.60;2.65;;;;;;;;;;5023900;28;20029;-71
2023/08/04 09:07:42;;;;;;;10.73;2.88;;;;;;;;;;5003506;28;20033;-71
2023/08/04 09:10:09;;;;;;;12.60;3.10;;;;;;;;;;5018398;28;20017;-71
2023/08/04 09:12:35;;;;;;;11.63;2.80;;;;;;;;;;5021311;28;20558;-70
2023/08/04 09:15:03;;;;;;;11.25;2.70;;;;;;;;;;5018538;28;20033;-70
2023/08/04 09:17:34;;;;;;;10.40;2.70;;;;;;;;;;5022352;28;20029;-70
2023/08/04 09:20:01;;;;;;;10.32;2.60;;;;;;;;;;5019677;28;20395;-70
2023/08/04 09:22:28;;;;;;;11.23;2.53;;;;;;;;;;5024777;28;20028;-71
2023/08/04 09:25:00;;;;;;;10.38;2.20;;;;;;;;;;4999142;28;20029;-70
2023/08/04 09:27:38;;;;;;;10.82;2.38;;;;;;;;;;5010229;28;20142;-70
2023/08/04 09:30:05;;;;;;;9.20;2.38;;;;;;;;;;5024104;28;20817;-70
2023/08/04 09:32:34;;;;;;;10.48;2.30;;;;;;;;;;5019817;28;20084;-70
2023/08/04 09:35:05;;;;;;;16.08;3.35;;;;;;;;;;5001771;28;20047;-70
2023/08/04 09:37:32;;;;;;;10.73;2.85;;;;;;;;;;5024740;28;20080;-72
2023/08/04 09:39:59;;;;;;;9.48;2.25;;;;;;;;;;5021709;28;20040;-72
2023/08/04 09:42:25;;;;;;;10.00;2.67;;;;;;;;;;5023826;28;20288;-70
2023/08/04 09:44:52;;;;;;;9.63;2.00;;;;;;;;;;5017989;28;20037;-70
2023/08/04 09:47:28;;;;;;;8.95;2.00;;;;;;;;;;5023774;28;20581;-70
2023/08/04 09:49:56;;;;;;;10.05;2.30;;;;;;;;;;5018761;28;20550;-70
2023/08/04 09:52:27;;;;;;;12.55;2.60;;;;;;;;;;5023204;28;20323;-72
2023/08/04 09:54:55;;;;;;;9.40;2.38;;;;;;;;;;5022636;28;20218;-73
2023/08/04 09:57:24;;;;;;;8.27;2.42;;;;;;;;;;5022456;28;20108;-72
2023/08/04 09:59:51;;;;;;;8.88;2.30;;;;;;;;;;4998751;28;20052;-72
2023/08/04 10:02:20;;;;;;;10.30;2.20;;;;;;;;;;5003242;28;20057;-72
2023/08/04 10:04:50;;;;;;;8.77;2.33;;;;;;;;;;5019601;28;20371;-71
2023/08/04 10:07:20;;;;;;;10.05;2.60;;;;;;;;;;5003952;28;20309;-71
2023/08/04 10:09:49;;;;;;;12.95;2.70;;;;;;;;;;5015255;28;20026;-72
2023/08/04 10:12:17;;;;;;;11.02;2.72;;;;;;;;;;5019713;28;20308;-71
2023/08/04 10:14:43;;;;;;;11.20;2.70;;;;;;;;;;5018682;28;20037;-71
2023/08/04 10:17:09;;;;;;;8.05;2.13;;;;;;;;;;5023442;28;20025;-71
2023/08/04 10:19:36;;;;;;;10.35;2.40;;;;;;;;;;5002064;28;20037;-71
2023/08/04 10:22:07;;;;;;;9.73;2.63;;;;;;;;;;5019911;28;20426;-71
2023/08/04 10:24:37;;;;;;;10.40;2.60;;;;;;;;;;5021428;28;20037;-71
2023/08/04 10:27:20;;;;;;;9.15;2.28;;;;;;;;;;5019869;28;20427;-70
2023/08/04 10:30:00;;;;;;;11.18;2.28;;;;;;;;;;5003389;28;20031;-71
2023/08/04 10:32:34;;;;;;;9.65;2.20;;;;;;;;;;5021638;28;20025;-71
2023/08/04 10:35:01;;;;;;;10.85;2.17;;;;;;;;;;5022165;28;20041;-70
2023/08/04 10:37:27;;;;;;;8.25;2.10;;;;;;;;;;5020057;28;20029;-70
2023/08/04 10:39:59;;;;;;;8.80;2.25;;;;;;;;;;5021242;28;20059;-70
2023/08/04 10:42:29;;;;;;;9.52;2.00;;;;;;;;;;5021430;28;20052;-71
2023/08/04 10:44:56;;;;;;;8.85;2.35;;;;;;;;;;5018568;28;20109;-71
2023/08/04 10:47:36;;;;;;;9.18;2.10;;;;;;;;;;5004803;28;20022;-71
2023/08/04 10:50:03;;;;;;;12.07;2.25;;;;;;;;;;4999171;28;20450;-70
2023/08/04 10:52:29;;;;;;;11.30;2.53;;;;;;;;;;5003129;28;20167;-70
2023/08/04 10:54:56;;;;;;;9.88;2.40;;;;;;;;;;5016262;28;20044;-71
2023/08/04 10:57:23;;;;;;;18.00;2.20;;;;;;;;;;5019604;28;20063;-71
2023/08/04 10:59:49;;;;;;;8.90;2.08;;;;;;;;;;5003760;28;20575;-71
2023/08/04 11:02:19;;;;;;;18.95;3.80;;;;;;;;;;5016969;28;20086;-71
2023/08/04 11:04:47;;;;;;;47.15;5.53;;;;;;;;;;5019826;28;20041;-71
2023/08/04 11:07:13;;;;;;;14.75;2.88;;;;;;;;;;5022190;28;20967;-70
2023/08/04 11:09:40;;;;;;;15.43;2.88;;;;;;;;;;5005344;28;20454;-70
2023/08/04 11:12:07;;;;;;;8.98;1.95;;;;;;;;;;5020993;28;20036;-70
2023/08/04 11:14:34;;;;;;;27.63;3.60;;;;;;;;;;5020418;28;20036;-70
2023/08/04 11:17:01;;;;;;;12.52;2.60;;;;;;;;;;5019610;28;20027;-71
2023/08/04 11:19:30;;;;;;;13.63;2.70;;;;;;;;;;5023309;28;20021;-71
2023/08/04 11:21:57;;;;;;;10.68;2.22;;;;;;;;;;5017716;28;20022;-71
2023/08/04 11:24:26;;;;;;;15.70;2.50;;;;;;;;;;5021402;28;20250;-71
2023/08/04 11:26:53;;;;;;;10.35;1.88;;;;;;;;;;5023252;28;20060;-71
2023/08/04 11:29:19;;;;;;;8.50;1.73;;;;;;;;;;5023428;28;20029;-71
2023/08/04 11:31:47;;;;;;;8.73;2.08;;;;;;;;;;5006500;28;20087;-71
2023/08/04 11:34:14;;;;;;;9.32;1.92;;;;;;;;;;5022913;28;20514;-70
2023/08/04 11:36:40;;;;;;;9.02;2.05;;;;;;;;;;5024404;28;20071;-73
2023/08/04 11:39:07;;;;;;;8.63;1.75;;;;;;;;;;5017373;28;20094;-72
2023/08/04 11:41:33;;;;;;;10.82;2.10;;;;;;;;;;5020750;28;20032;-73
2023/08/04 11:44:00;;;;;;;8.25;1.90;;;;;;;;;;5017537;28;20034;-70
2023/08/04 11:46:27;;;;;;;7.68;2.00;;;;;;;;;;5005766;28;20021;-73
2023/08/04 11:48:53;;;;;;;9.63;1.98;;;;;;;;;;4997526;28;20615;-72
2023/08/04 11:51:19;;;;;;;11.50;2.25;;;;;;;;;;5004169;28;20074;-71
2023/08/04 11:53:46;;;;;;;7.18;2.13;;;;;;;;;;5020064;28;20037;-71
2023/08/04 11:56:12;;;;;;;29.33;5.40;;;;;;;;;;5003618;28;20028;-71
2023/08/04 11:58:47;;;;;;;8.45;2.00;;;;;;;;;;5018171;28;20545;-71
2023/08/04 12:01:32;;;;;;;13.00;3.10;;;;;;;;;;5001745;28;20033;-71
2023/08/04 12:03:58;;;;;;;13.80;2.95;;;;;;;;;;5015847;28;20045;-71
2023/08/04 12:06:26;;;;;;;12.07;2.70;;;;;;;;;;5018758;28;20094;-71
2023/08/04 12:08:53;;;;;;;10.48;2.40;;;;;;;;;;4999360;28;20033;-71
2023/08/04 12:11:20;;;;;;;11.60;2.33;;;;;;;;;;5002691;28;20668;-71
2023/08/04 12:13:47;;;;;;;15.32;2.53;;;;;;;;;;5018456;28;20029;-71
2023/08/04 12:16:13;;;;;;;8.60;1.90;;;;;;;;;;5019207;28;20029;-71
2023/08/04 12:18:40;;;;;;;12.40;2.45;;;;;;;;;;5018873;28;20792;-71
2023/08/04 12:21:10;;;;;;;17.25;2.90;;;;;;;;;;5001503;28;20030;-71
2023/08/04 12:23:36;;;;;;;13.40;2.72;;;;;;;;;;5001674;28;20154;-71
2023/08/04 12:26:02;;;;;;;10.23;2.78;;;;;;;;;;5017320;28;20522;-73
2023/08/04 12:28:28;;;;;;;10.50;2.55;;;;;;;;;;5017436;28;20452;-70
2023/08/04 12:30:54;;;;;;;10.07;2.35;;;;;;;;;;5001570;28;20117;-72
2023/08/04 12:33:21;;;;;;;11.80;2.70;;;;;;;;;;5018844;28;20037;-72
2023/08/04 12:35:47;;;;;;;12.35;2.88;;;;;;;;;;5019529;28;20868;-71
2023/08/04 12:38:13;;;;;;;9.55;2.60;;;;;;;;;;5016935;28;20217;-72
2023/08/04 12:40:39;;;;;;;12.60;3.17;;;;;;;;;;5000531;28;20108;-71
2023/08/04 12:43:05;;;;;;;12.90;3.17;;;;;;;;;;4995315;28;20037;-71
2023/08/04 12:45:31;;;;;;;11.15;3.85;;;;;;;;;;5018385;28;20056;-72
2023/08/04 12:47:58;;;;;;;10.13;3.38;;;;;;;;;;5013511;28;20034;-71
2023/08/04 12:50:24;;;;;;;11.27;3.38;;;;;;;;;;5016887;28;20017;-73
2023/08/04 12:52:50;;;;;;;12.98;3.88;;;;;;;;;;5017956;28;20083;-73
2023/08/04 12:55:16;;;;;;;12.65;5.30;;;;;;;;;;5016680;28;20197;-73
2023/08/04 12:57:42;;;;;;;10.45;3.15;;;;;;;;;;5019609;28;20481;-71
2023/08/04 13:00:09;;;;;;;11.88;4.45;;;;;;;;;;5017680;28;20418;-71
2023/08/04 13:02:35;;;;;;;10.95;2.60;;;;;;;;;;5018329;28;20033;-72
2023/08/04 13:05:01;;;;;;;9.75;2.55;;;;;;;;;;5019967;28;20501;-71
2023/08/04 13:07:27;;;;;;;8.40;2.10;;;;;;;;;;5016435;28;20479;-73
2023/08/04 13:09:53;;;;;;;8.98;2.25;;;;;;;;;;5014885;28;20728;-73
2023/08/04 13:12:19;;;;;;;7.40;2.10;;;;;;;;;;5016284;28;20761;-73
2023/08/04 13:14:46;;;;;;;10.93;2.50;;;;;;;;;;5017368;28;20695;-73
2023/08/04 13:17:12;;;;;;;9.50;2.70;;;;;;;;;;5021920;28;20039;-73
2023/08/04 13:19:38;;;;;;;9.70;2.38;;;;;;;;;;5022337;28;20033;-72
2023/08/04 13:22:04;;;;;;;9.65;2.30;;;;;;;;;;5016559;28;20044;-70
2023/08/04 13:24:30;;;;;;;10.70;2.47;;;;;;;;;;5015769;28;20029;-71
2023/08/04 13:26:56;;;;;;;11.27;2.60;;;;;;;;;;5011694;28;20029;-72
2023/08/04 13:29:22;;;;;;;11.82;2.72;;;;;;;;;;5015375;28;20127;-73
2023/08/04 13:31:49;;;;;;;9.73;2.45;;;;;;;;;;5016074;28;20028;-73
2023/08/04 13:34:15;;;;;;;9.90;2.63;;;;;;;;;;5015545;28;20057;-72
2023/08/04 13:36:41;;;;;;;10.73;2.50;;;;;;;;;;5021412;28;20037;-72
2023/08/04 13:39:07;;;;;;;8.90;2.22;;;;;;;;;;5016842;28;20040;-72
2023/08/04 13:41:33;;;;;;;9.98;2.55;;;;;;;;;;5018163;28;20037;-72
2023/08/04 13:43:59;;;;;;;10.68;2.65;;;;;;;;;;5016362;28;20017;-73
2023/08/04 13:46:25;;;;;;;10.13;2.67;;;;;;;;;;5024326;28;20112;-72
2023/08/04 13:48:51;;;;;;;9.73;2.60;;;;;;;;;;5020214;28;20488;-72
2023/08/04 13:51:18;;;;;;;11.80;2.63;;;;;;;;;;5020778;28;20768;-72
2023/08/04 13:53:44;;;;;;;9.80;2.38;;;;;;;;;;5020780;28;20036;-72
2023/08/04 13:56:10;;;;;;;9.73;2.50;;;;;;;;;;5009400;28;20542;-71
2023/08/04 13:58:36;;;;;;;10.70;2.63;;;;;;;;;;5016244;28;20522;-72
2023/08/04 14:01:03;;;;;;;9.82;2.30;;;;;;;;;;5020179;28;20129;-72
2023/08/04 14:03:30;;;;;;;10.73;2.80;;;;;;;;;;5006908;28;20108;-71
2023/08/04 14:06:00;;;;;;;10.18;2.40;;;;;;;;;;5020909;28;20136;-72
2023/08/04 14:08:26;;;;;;;10.20;2.33;;;;;;;;;;5023340;28;20352;-72
2023/08/04 14:10:54;;;;;;;10.13;2.33;;;;;;;;;;5017695;28;20507;-72
2023/08/04 14:13:21;;;;;;;9.90;2.70;;;;;;;;;;5019100;28;20163;-71
2023/08/04 14:15:47;;;;;;;9.77;2.38;;;;;;;;;;5019381;28;20448;-72
2023/08/04 14:18:14;;;;;;;8.98;2.30;;;;;;;;;;5009437;28;20383;-70
2023/08/04 14:20:40;;;;;;;8.70;2.20;;;;;;;;;;5019734;28;20372;-70
2023/08/04 14:23:06;;;;;;;9.27;2.47;;;;;;;;;;5020534;28;20033;-71
2023/08/04 14:25:32;;;;;;;9.82;2.42;;;;;;;;;;5021644;28;20120;-72
2023/08/04 14:27:59;;;;;;;8.43;2.33;;;;;;;;;;4995769;28;20115;-71
2023/08/04 14:30:25;;;;;;;8.95;2.30;;;;;;;;;;5019403;28;20362;-70